sensor_id;sensor_type;location;lat;lon;timestamp;pressure;altitude;pressure_sealevel;temperature;humidity
75740;BME280;64357;51.344;6.550;2023-06-19T00:00:43;100394.78;;;22.83;58.88
75740;BME280;64357;51.344;6.550;2023-06-19T00:03:10;100389.88;;;22.89;58.58
75740;BME280;64357;51.344;6.550;2023-06-19T00:05:36;100393.63;;;22.96;58.35
75740;BME280;64357;51.344;6.550;2023-06-19T00:08:01;100376.78;;;22.87;58.12
75740;BME280;64357;51.344;6.550;2023-06-19T00:10:28;100383.34;;;22.99;58.11
75740;BME280;64357;51.344;6.550;2023-06-19T00:12:54;100382.31;;;22.95;58.07
75740;BME280;64357;51.344;6.550;2023-06-19T00:15:19;100387.25;;;22.89;58.82
75740;BME280;64357;51.344;6.550;2023-06-19T00:17:44;100386.31;;;22.87;59.17
75740;BME280;64357;51.344;6.550;2023-06-19T00:20:10;100392.78;;;22.77;59.41
75740;BME280;64357;51.344;6.550;2023-06-19T00:22:35;100397.00;;;22.54;60.45
75740;BME280;64357;51.344;6.550;2023-06-19T00:25:01;100405.91;;;22.59;60.38
75740;BME280;64357;51.344;6.550;2023-06-19T00:27:27;100404.81;;;22.54;60.77
75740;BME280;64357;51.344;6.550;2023-06-19T00:29:55;100405.69;;;22.55;60.65
75740;BME280;64357;51.344;6.550;2023-06-19T00:32:28;100397.06;;;22.56;60.58
75740;BME280;64357;51.344;6.550;2023-06-19T00:34:55;100410.28;;;22.60;60.67
75740;BME280;64357;51.344;6.550;2023-06-19T00:37:21;100399.88;;;22.41;61.08
75740;BME280;64357;51.344;6.550;2023-06-19T00:39:46;100410.09;;;22.37;61.42
75740;BME280;64357;51.344;6.550;2023-06-19T00:42:12;100404.38;;;22.45;60.91
75740;BME280;64357;51.344;6.550;2023-06-19T00:44:37;100403.56;;;22.27;61.69
75740;BME280;64357;51.344;6.550;2023-06-19T00:47:03;100403.56;;;22.27;61.85
75740;BME280;64357;51.344;6.550;2023-06-19T00:49:30;100409.59;;;22.26;61.97
75740;BME280;64357;51.344;6.550;2023-06-19T00:51:56;100407.69;;;22.41;61.42
75740;BME280;64357;51.344;6.550;2023-06-19T00:54:22;100407.22;;;22.30;61.98
75740;BME280;64357;51.344;6.550;2023-06-19T00:56:48;100413.84;;;22.24;62.20
75740;BME280;64357;51.344;6.550;2023-06-19T00:59:18;100421.16;;;22.13;62.87
75740;BME280;64357;51.344;6.550;2023-06-19T01:01:44;100419.38;;;22.12;62.83
75740;BME280;64357;51.344;6.550;2023-06-19T01:04:12;100411.09;;;22.03;63.21
75740;BME280;64357;51.344;6.550;2023-06-19T01:06:53;100421.59;;;21.87;64.14
75740;BME280;64357;51.344;6.550;2023-06-19T01:09:36;100421.47;;;21.83;64.26
75740;BME280;64357;51.344;6.550;2023-06-19T01:12:16;100418.94;;;21.85;64.13
75740;BME280;64357;51.344;6.550;2023-06-19T01:14:53;100413.59;;;21.82;64.32
75740;BME280;64357;51.344;6.550;2023-06-19T01:17:21;100420.41;;;21.80;64.33
75740;BME280;64357;51.344;6.550;2023-06-19T01:19:47;100420.81;;;21.88;64.13
75740;BME280;64357;51.344;6.550;2023-06-19T01:22:25;100414.94;;;21.74;64.58
75740;BME280;64357;51.344;6.550;2023-06-19T01:24:53;100412.94;;;21.68;64.64
75740;BME280;64357;51.344;6.550;2023-06-19T01:27:19;100412.19;;;21.71;64.76
75740;BME280;64357;51.344;6.550;2023-06-19T01:29:44;100413.63;;;21.64;65.01
75740;BME280;64357;51.344;6.550;2023-06-19T01:32:14;100412.25;;;21.72;64.90
75740;BME280;64357;51.344;6.550;2023-06-19T01:34:41;100410.63;;;21.74;64.79
75740;BME280;64357;51.344;6.550;2023-06-19T01:37:07;100415.69;;;21.53;65.53
75740;BME280;64357;51.344;6.550;2023-06-19T01:39:37;100412.72;;;21.64;65.07
75740;BME280;64357;51.344;6.550;2023-06-19T01:42:04;100413.63;;;21.64;65.25
75740;BME280;64357;51.344;6.550;2023-06-19T01:44:31;100415.81;;;21.56;65.19
75740;BME280;64357;51.344;6.550;2023-06-19T01:46:56;100421.47;;;21.66;65.28
75740;BME280;64357;51.344;6.550;2023-06-19T01:49:22;100412.50;;;21.59;65.74
75740;BME280;64357;51.344;6.550;2023-06-19T01:51:47;100421.78;;;21.72;65.07
75740;BME280;64357;51.344;6.550;2023-06-19T01:54:15;100430.22;;;21.68;65.66
75740;BME280;64357;51.344;6.550;2023-06-19T01:56:43;100422.06;;;21.78;64.80
75740;BME280;64357;51.344;6.550;2023-06-19T01:59:08;100436.22;;;22.02;64.43
75740;BME280;64357;51.344;6.550;2023-06-19T02:01:36;100437.19;;;21.87;64.97
75740;BME280;64357;51.344;6.550;2023-06-19T02:04:05;100437.19;;;21.87;64.82
75740;BME280;64357;51.344;6.550;2023-06-19T02:06:34;100436.09;;;21.99;64.00
75740;BME280;64357;51.344;6.550;2023-06-19T02:09:00;100448.28;;;22.18;63.86
75740;BME280;64357;51.344;6.550;2023-06-19T02:11:26;100443.75;;;22.14;63.90
75740;BME280;64357;51.344;6.550;2023-06-19T02:13:53;100455.19;;;22.18;63.65
75740;BME280;64357;51.344;6.550;2023-06-19T02:16:19;100457.41;;;22.10;63.98
75740;BME280;64357;51.344;6.550;2023-06-19T02:18:44;100464.91;;;22.04;64.02
75740;BME280;64357;51.344;6.550;2023-06-19T02:21:12;100464.53;;;21.96;64.30
75740;BME280;64357;51.344;6.550;2023-06-19T02:23:37;100464.53;;;21.96;64.46
75740;BME280;64357;51.344;6.550;2023-06-19T02:26:05;100467.50;;;22.04;63.81
75740;BME280;64357;51.344;6.550;2023-06-19T02:28:31;100476.41;;;22.09;63.05
75740;BME280;64357;51.344;6.550;2023-06-19T02:30:58;100470.09;;;22.04;62.85
75740;BME280;64357;51.344;6.550;2023-06-19T02:33:24;100477.91;;;22.22;61.98
75740;BME280;64357;51.344;6.550;2023-06-19T02:35:54;100485.72;;;22.22;61.96
75740;BME280;64357;51.344;6.550;2023-06-19T02:38:24;100481.84;;;22.31;61.46
75740;BME280;64357;51.344;6.550;2023-06-19T02:40:54;100492.50;;;22.18;61.84
75740;BME280;64357;51.344;6.550;2023-06-19T02:43:19;100501.44;;;22.23;61.77
75740;BME280;64357;51.344;6.550;2023-06-19T02:45:45;100495.19;;;22.20;62.06
75740;BME280;64357;51.344;6.550;2023-06-19T02:48:10;100503.34;;;22.27;62.13
75740;BME280;64357;51.344;6.550;2023-06-19T02:50:35;100501.53;;;22.08;63.60
75740;BME280;64357;51.344;6.550;2023-06-19T02:53:03;100500.25;;;21.99;64.79
75740;BME280;64357;51.344;6.550;2023-06-19T02:55:28;100513.31;;;22.00;64.49
75740;BME280;64357;51.344;6.550;2023-06-19T02:57:54;100502.97;;;21.84;65.40
75740;BME280;64357;51.344;6.550;2023-06-19T03:00:19;100506.75;;;21.73;66.03
75740;BME280;64357;51.344;6.550;2023-06-19T03:02:45;100502.91;;;21.65;66.37
75740;BME280;64357;51.344;6.550;2023-06-19T03:05:12;100503.91;;;21.50;66.97
75740;BME280;64357;51.344;6.550;2023-06-19T03:07:42;100509.09;;;21.50;67.34
75740;BME280;64357;51.344;6.550;2023-06-19T03:10:07;100513.03;;;21.42;67.86
75740;BME280;64357;51.344;6.550;2023-06-19T03:12:33;100501.50;;;21.37;67.92
75740;BME280;64357;51.344;6.550;2023-06-19T03:15:00;100511.53;;;21.29;68.71
75740;BME280;64357;51.344;6.550;2023-06-19T03:17:31;100510.28;;;21.23;69.03
75740;BME280;64357;51.344;6.550;2023-06-19T03:19:56;100512.72;;;21.20;69.10
75740;BME280;64357;51.344;6.550;2023-06-19T03:22:22;100517.19;;;21.06;69.51
75740;BME280;64357;51.344;6.550;2023-06-19T03:24:50;100532.53;;;21.01;70.26
75740;BME280;64357;51.344;6.550;2023-06-19T03:27:18;100534.63;;;21.09;69.89
75740;BME280;64357;51.344;6.550;2023-06-19T03:29:43;100539.69;;;21.06;70.11
75740;BME280;64357;51.344;6.550;2023-06-19T03:32:09;100527.91;;;20.96;70.48
75740;BME280;64357;51.344;6.550;2023-06-19T03:34:34;100534.56;;;20.91;70.97
75740;BME280;64357;51.344;6.550;2023-06-19T03:37:00;100529.03;;;20.85;71.29
75740;BME280;64357;51.344;6.550;2023-06-19T03:39:25;100543.63;;;20.99;71.01
75740;BME280;64357;51.344;6.550;2023-06-19T03:41:53;100550.78;;;20.87;71.77
75740;BME280;64357;51.344;6.550;2023-06-19T03:44:18;100556.13;;;20.73;72.25
75740;BME280;64357;51.344;6.550;2023-06-19T03:46:44;100544.00;;;20.58;72.74
75740;BME280;64357;51.344;6.550;2023-06-19T03:49:11;100570.97;;;20.45;73.79
75740;BME280;64357;51.344;6.550;2023-06-19T03:51:37;100568.91;;;20.39;74.24
75740;BME280;64357;51.344;6.550;2023-06-19T03:54:03;100574.59;;;20.32;74.82
75740;BME280;64357;51.344;6.550;2023-06-19T03:56:30;100580.50;;;20.30;74.74
75740;BME280;64357;51.344;6.550;2023-06-19T03:58:56;100590.78;;;20.28;75.22
75740;BME280;64357;51.344;6.550;2023-06-19T04:01:21;100587.75;;;20.35;74.90
75740;BME280;64357;51.344;6.550;2023-06-19T04:03:47;100589.59;;;20.38;74.98
75740;BME280;64357;51.344;6.550;2023-06-19T04:06:14;100582.03;;;20.26;75.14
75740;BME280;64357;51.344;6.550;2023-06-19T04:08:40;100596.75;;;20.42;74.85
75740;BME280;64357;51.344;6.550;2023-06-19T04:11:05;100596.56;;;20.39;75.24
75740;BME280;64357;51.344;6.550;2023-06-19T04:13:31;100584.00;;;20.30;75.42
75740;BME280;64357;51.344;6.550;2023-06-19T04:15:56;100592.38;;;20.41;75.22
75740;BME280;64357;51.344;6.550;2023-06-19T04:18:22;100604.28;;;20.22;76.27
75740;BME280;64357;51.344;6.550;2023-06-19T04:20:54;100607.34;;;20.15;76.56
75740;BME280;64357;51.344;6.550;2023-06-19T04:23:20;100613.34;;;20.14;76.76
75740;BME280;64357;51.344;6.550;2023-06-19T04:25:45;100606.78;;;20.36;75.78
75740;BME280;64357;51.344;6.550;2023-06-19T04:28:12;100609.66;;;20.40;75.84
75740;BME280;64357;51.344;6.550;2023-06-19T04:30:38;100620.47;;;20.33;76.20
75740;BME280;64357;51.344;6.550;2023-06-19T04:33:08;100625.13;;;20.39;76.17
75740;BME280;64357;51.344;6.550;2023-06-19T04:35:36;100619.22;;;20.27;76.68
75740;BME280;64357;51.344;6.550;2023-06-19T04:38:05;100627.09;;;20.28;77.02
75740;BME280;64357;51.344;6.550;2023-06-19T04:40:31;100622.97;;;20.32;76.92
75740;BME280;64357;51.344;6.550;2023-06-19T04:42:57;100615.38;;;20.35;76.43
75740;BME280;64357;51.344;6.550;2023-06-19T04:45:23;100626.38;;;20.45;76.23
75740;BME280;64357;51.344;6.550;2023-06-19T04:47:48;100638.19;;;20.55;76.19
75740;BME280;64357;51.344;6.550;2023-06-19T04:50:13;100632.38;;;20.59;75.67
75740;BME280;64357;51.344;6.550;2023-06-19T04:52:43;100634.56;;;20.68;75.74
75740;BME280;64357;51.344;6.550;2023-06-19T04:55:08;100641.41;;;20.51;75.97
75740;BME280;64357;51.344;6.550;2023-06-19T04:57:37;100637.09;;;20.52;75.86
75740;BME280;64357;51.344;6.550;2023-06-19T05:00:06;100634.06;;;20.59;75.81
75740;BME280;64357;51.344;6.550;2023-06-19T05:02:32;100637.16;;;20.68;75.81
75740;BME280;64357;51.344;6.550;2023-06-19T05:04:58;100632.16;;;20.71;75.68
75740;BME280;64357;51.344;6.550;2023-06-19T05:07:29;100641.44;;;20.82;75.54
75740;BME280;64357;51.344;6.550;2023-06-19T05:09:54;100654.97;;;20.93;74.95
75740;BME280;64357;51.344;6.550;2023-06-19T05:12:20;100657.72;;;20.80;75.40
75740;BME280;64357;51.344;6.550;2023-06-19T05:14:45;100664.88;;;20.84;75.26
75740;BME280;64357;51.344;6.550;2023-06-19T05:17:13;100662.84;;;20.78;75.68
75740;BME280;64357;51.344;6.550;2023-06-19T05:19:39;100670.56;;;20.93;75.34
75740;BME280;64357;51.344;6.550;2023-06-19T05:22:06;100676.59;;;21.08;74.75
75740;BME280;64357;51.344;6.550;2023-06-19T05:24:32;100657.59;;;21.09;74.45
75740;BME280;64357;51.344;6.550;2023-06-19T05:26:58;100669.13;;;21.29;73.81
75740;BME280;64357;51.344;6.550;2023-06-19T05:29:23;100667.28;;;21.28;73.92
75740;BME280;64357;51.344;6.550;2023-06-19T05:31:50;100664.47;;;21.23;73.92
75740;BME280;64357;51.344;6.550;2023-06-19T05:34:17;100667.63;;;21.34;73.95
75740;BME280;64357;51.344;6.550;2023-06-19T05:36:43;100657.59;;;21.40;73.33
75740;BME280;64357;51.344;6.550;2023-06-19T05:39:12;100668.72;;;21.38;73.21
75740;BME280;64357;51.344;6.550;2023-06-19T05:41:38;100653.53;;;21.29;73.42
75740;BME280;64357;51.344;6.550;2023-06-19T05:44:03;100658.94;;;21.34;73.66
75740;BME280;64357;51.344;6.550;2023-06-19T05:46:31;100672.44;;;21.43;73.16
75740;BME280;64357;51.344;6.550;2023-06-19T05:48:56;100660.34;;;21.43;72.96
75740;BME280;64357;51.344;6.550;2023-06-19T05:51:24;100655.63;;;21.36;73.10
75740;BME280;64357;51.344;6.550;2023-06-19T05:53:52;100675.94;;;21.43;73.20
75740;BME280;64357;51.344;6.550;2023-06-19T05:56:17;100666.94;;;21.37;73.47
75740;BME280;64357;51.344;6.550;2023-06-19T05:58:43;100676.66;;;21.57;72.71
75740;BME280;64357;51.344;6.550;2023-06-19T06:01:11;100689.97;;;21.79;71.76
75740;BME280;64357;51.344;6.550;2023-06-19T06:03:37;100684.00;;;21.64;72.48
75740;BME280;64357;51.344;6.550;2023-06-19T06:06:02;100687.94;;;21.58;72.72
75740;BME280;64357;51.344;6.550;2023-06-19T06:08:31;100705.50;;;21.62;72.59
75740;BME280;64357;51.344;6.550;2023-06-19T06:10:56;100695.03;;;21.60;72.61
75740;BME280;64357;51.344;6.550;2023-06-19T06:13:22;100691.16;;;21.52;73.46
75740;BME280;64357;51.344;6.550;2023-06-19T06:15:47;100687.94;;;21.58;72.81
75740;BME280;64357;51.344;6.550;2023-06-19T06:18:15;100698.84;;;21.67;72.96
75740;BME280;64357;51.344;6.550;2023-06-19T06:20:40;100697.88;;;21.65;72.87
75740;BME280;64357;51.344;6.550;2023-06-19T06:23:08;100706.50;;;21.64;73.19
75740;BME280;64357;51.344;6.550;2023-06-19T06:25:33;100709.94;;;21.80;72.50
75740;BME280;64357;51.344;6.550;2023-06-19T06:27:59;100712.16;;;21.73;73.02
75740;BME280;64357;51.344;6.550;2023-06-19T06:30:25;100705.00;;;21.85;72.40
75740;BME280;64357;51.344;6.550;2023-06-19T06:32:52;100709.16;;;21.65;73.51
75740;BME280;64357;51.344;6.550;2023-06-19T06:35:18;100711.84;;;21.67;74.18
75740;BME280;64357;51.344;6.550;2023-06-19T06:37:43;100719.63;;;21.50;76.19
75740;BME280;64357;51.344;6.550;2023-06-19T06:40:11;100732.50;;;21.64;76.61
75740;BME280;64357;51.344;6.550;2023-06-19T06:42:37;100717.19;;;21.22;78.35
75740;BME280;64357;51.344;6.550;2023-06-19T06:45:06;100737.03;;;21.20;79.08
75740;BME280;64357;51.344;6.550;2023-06-19T06:47:32;100737.84;;;21.19;79.13
75740;BME280;64357;51.344;6.550;2023-06-19T06:50:00;100741.41;;;21.21;79.21
75740;BME280;64357;51.344;6.550;2023-06-19T06:52:25;100743.84;;;21.18;79.81
75740;BME280;64357;51.344;6.550;2023-06-19T06:54:53;100742.66;;;20.97;80.10
75740;BME280;64357;51.344;6.550;2023-06-19T06:57:21;100760.88;;;21.13;79.80
75740;BME280;64357;51.344;6.550;2023-06-19T06:59:55;100753.03;;;20.97;80.40
75740;BME280;64357;51.344;6.550;2023-06-19T07:02:22;100760.91;;;20.98;80.56
75740;BME280;64357;51.344;6.550;2023-06-19T07:04:51;100758.97;;;21.25;79.73
75740;BME280;64357;51.344;6.550;2023-06-19T07:07:17;100753.84;;;21.58;78.20
75740;BME280;64357;51.344;6.550;2023-06-19T07:09:42;100761.88;;;21.79;77.33
75740;BME280;64357;51.344;6.550;2023-06-19T07:12:08;100761.72;;;21.92;76.33
75740;BME280;64357;51.344;6.550;2023-06-19T07:14:35;100766.94;;;21.76;77.16
75740;BME280;64357;51.344;6.550;2023-06-19T07:17:04;100769.44;;;21.91;76.10
75740;BME280;64357;51.344;6.550;2023-06-19T07:19:34;100772.84;;;21.73;77.10
75740;BME280;64357;51.344;6.550;2023-06-19T07:22:05;100780.09;;;21.79;77.54
75740;BME280;64357;51.344;6.550;2023-06-19T07:24:30;100773.84;;;21.75;77.98
75740;BME280;64357;51.344;6.550;2023-06-19T07:26:56;100776.69;;;21.64;79.05
75740;BME280;64357;51.344;6.550;2023-06-19T07:29:27;100775.34;;;21.39;80.53
75740;BME280;64357;51.344;6.550;2023-06-19T07:31:52;100782.63;;;21.77;79.38
75740;BME280;64357;51.344;6.550;2023-06-19T07:34:18;100776.28;;;22.05;77.77
75740;BME280;64357;51.344;6.550;2023-06-19T07:36:43;100773.84;;;22.58;75.50
75740;BME280;64357;51.344;6.550;2023-06-19T07:39:09;100777.50;;;23.33;72.01
75740;BME280;64357;51.344;6.550;2023-06-19T07:41:37;100782.97;;;23.75;70.50
75740;BME280;64357;51.344;6.550;2023-06-19T07:44:02;100778.16;;;23.65;69.98
75740;BME280;64357;51.344;6.550;2023-06-19T07:46:28;100775.41;;;23.81;68.87
75740;BME280;64357;51.344;6.550;2023-06-19T07:48:55;100775.00;;;24.72;65.37
75740;BME280;64357;51.344;6.550;2023-06-19T07:51:23;100778.06;;;25.04;63.96
75740;BME280;64357;51.344;6.550;2023-06-19T07:53:49;100781.50;;;24.01;66.81
75740;BME280;64357;51.344;6.550;2023-06-19T07:56:14;100786.25;;;23.34;68.96
75740;BME280;64357;51.344;6.550;2023-06-19T07:58:42;100790.09;;;23.61;67.57
75740;BME280;64357;51.344;6.550;2023-06-19T08:01:07;100788.44;;;24.20;65.41
75740;BME280;64357;51.344;6.550;2023-06-19T08:03:33;100791.38;;;24.89;62.41
75740;BME280;64357;51.344;6.550;2023-06-19T08:06:01;100789.25;;;25.44;59.86
75740;BME280;64357;51.344;6.550;2023-06-19T08:08:26;100792.97;;;24.85;59.81
75740;BME280;64357;51.344;6.550;2023-06-19T08:10:52;100775.28;;;23.78;63.61
75740;BME280;64357;51.344;6.550;2023-06-19T08:13:17;100782.94;;;24.96;60.72
75740;BME280;64357;51.344;6.550;2023-06-19T08:15:45;100771.97;;;25.25;59.05
75740;BME280;64357;51.344;6.550;2023-06-19T08:18:15;100779.25;;;25.79;57.74
75740;BME280;64357;51.344;6.550;2023-06-19T08:20:42;100768.50;;;26.69;55.04
75740;BME280;64357;51.344;6.550;2023-06-19T08:23:08;100767.00;;;27.31;53.22
75740;BME280;64357;51.344;6.550;2023-06-19T08:25:36;100774.50;;;26.15;55.54
75740;BME280;64357;51.344;6.550;2023-06-19T08:28:01;100785.00;;;25.24;57.34
75740;BME280;64357;51.344;6.550;2023-06-19T08:30:26;100760.50;;;24.58;59.78
75740;BME280;64357;51.344;6.550;2023-06-19T08:32:53;100784.88;;;24.37;60.71
75740;BME280;64357;51.344;6.550;2023-06-19T08:35:18;100765.69;;;24.37;60.00
75740;BME280;64357;51.344;6.550;2023-06-19T08:37:44;100770.03;;;24.36;60.54
75740;BME280;64357;51.344;6.550;2023-06-19T08:40:10;100777.69;;;24.73;58.84
75740;BME280;64357;51.344;6.550;2023-06-19T08:42:40;100783.38;;;24.63;58.92
75740;BME280;64357;51.344;6.550;2023-06-19T08:45:10;100777.97;;;23.99;60.63
75740;BME280;64357;51.344;6.550;2023-06-19T08:47:36;100793.03;;;24.26;59.02
75740;BME280;64357;51.344;6.550;2023-06-19T08:50:04;100796.19;;;24.57;58.79
75740;BME280;64357;51.344;6.550;2023-06-19T08:52:29;100789.56;;;24.86;57.44
75740;BME280;64357;51.344;6.550;2023-06-19T08:54:57;100794.06;;;25.56;55.49
75740;BME280;64357;51.344;6.550;2023-06-19T08:57:33;100783.50;;;25.99;53.08
75740;BME280;64357;51.344;6.550;2023-06-19T08:59:58;100796.47;;;26.97;50.92
75740;BME280;64357;51.344;6.550;2023-06-19T09:02:24;100792.78;;;26.63;51.00
75740;BME280;64357;51.344;6.550;2023-06-19T09:04:49;100793.88;;;25.07;55.31
75740;BME280;64357;51.344;6.550;2023-06-19T09:07:15;100792.69;;;25.66;53.72
75740;BME280;64357;51.344;6.550;2023-06-19T09:09:44;100797.72;;;25.82;53.32
75740;BME280;64357;51.344;6.550;2023-06-19T09:12:16;100797.75;;;25.61;53.97
75740;BME280;64357;51.344;6.550;2023-06-19T09:14:45;100797.59;;;26.03;52.30
75740;BME280;64357;51.344;6.550;2023-06-19T09:17:13;100800.44;;;26.84;49.08
75740;BME280;64357;51.344;6.550;2023-06-19T09:19:48;100804.94;;;27.42;47.08
75740;BME280;64357;51.344;6.550;2023-06-19T09:22:18;100804.09;;;26.89;48.85
75740;BME280;64357;51.344;6.550;2023-06-19T09:24:45;100803.03;;;28.58;44.54
75740;BME280;64357;51.344;6.550;2023-06-19T09:27:13;100816.84;;;28.20;44.63
75740;BME280;64357;51.344;6.550;2023-06-19T09:29:47;100796.50;;;28.11;45.01
75740;BME280;64357;51.344;6.550;2023-06-19T09:32:49;100796.16;;;27.13;46.84
75740;BME280;64357;51.344;6.550;2023-06-19T09:35:15;100814.78;;;26.20;48.37
75740;BME280;64357;51.344;6.550;2023-06-19T09:37:41;100782.88;;;25.60;50.07
75740;BME280;64357;51.344;6.550;2023-06-19T09:40:07;100821.16;;;25.13;53.01
75740;BME280;64357;51.344;6.550;2023-06-19T09:42:40;100822.75;;;25.75;50.99
75740;BME280;64357;51.344;6.550;2023-06-19T09:45:07;100820.53;;;25.41;51.21
75740;BME280;64357;51.344;6.550;2023-06-19T09:47:43;100825.88;;;25.22;52.47
75740;BME280;64357;51.344;6.550;2023-06-19T09:50:12;100808.84;;;26.74;48.21
75740;BME280;64357;51.344;6.550;2023-06-19T09:52:39;100820.75;;;26.91;46.98
75740;BME280;64357;51.344;6.550;2023-06-19T09:55:05;100822.41;;;26.88;47.33
75740;BME280;64357;51.344;6.550;2023-06-19T09:57:35;100816.72;;;27.83;45.35
75740;BME280;64357;51.344;6.550;2023-06-19T10:00:03;100819.84;;;27.43;46.53
75740;BME280;64357;51.344;6.550;2023-06-19T10:02:40;100823.50;;;28.37;42.59
75740;BME280;64357;51.344;6.550;2023-06-19T10:05:09;100829.22;;;27.63;42.78
75740;BME280;64357;51.344;6.550;2023-06-19T10:07:38;100819.13;;;27.20;43.46
75740;BME280;64357;51.344;6.550;2023-06-19T10:10:10;100838.63;;;27.28;43.75
75740;BME280;64357;51.344;6.550;2023-06-19T10:12:42;100835.31;;;26.81;44.46
75740;BME280;64357;51.344;6.550;2023-06-19T10:15:12;100834.63;;;27.40;42.48
75740;BME280;64357;51.344;6.550;2023-06-19T10:17:50;100833.72;;;27.39;42.11
75740;BME280;64357;51.344;6.550;2023-06-19T10:20:36;100823.66;;;26.73;43.37
75740;BME280;64357;51.344;6.550;2023-06-19T10:23:15;100836.00;;;27.28;42.99
75740;BME280;64357;51.344;6.550;2023-06-19T10:25:55;100837.16;;;26.35;44.65
75740;BME280;64357;51.344;6.550;2023-06-19T10:28:24;100828.34;;;27.63;42.56
75740;BME280;64357;51.344;6.550;2023-06-19T10:30:53;100829.19;;;27.62;42.47
75740;BME280;64357;51.344;6.550;2023-06-19T10:33:35;100839.78;;;27.38;42.59
75740;BME280;64357;51.344;6.550;2023-06-19T10:39:00;100818.13;;;28.99;37.87
75740;BME280;64357;51.344;6.550;2023-06-19T10:41:28;100821.41;;;30.06;36.15
75740;BME280;64357;51.344;6.550;2023-06-19T10:46:28;100823.53;;;29.82;35.00
75740;BME280;64357;51.344;6.550;2023-06-19T10:48:55;100829.09;;;29.55;36.19
75740;BME280;64357;51.344;6.550;2023-06-19T10:51:30;100828.28;;;29.57;36.69
75740;BME280;64357;51.344;6.550;2023-06-19T10:53:58;100819.94;;;28.68;38.39
75740;BME280;64357;51.344;6.550;2023-06-19T10:56:24;100819.03;;;28.33;38.69
75740;BME280;64357;51.344;6.550;2023-06-19T10:59:07;100814.66;;;27.73;39.28
75740;BME280;64357;51.344;6.550;2023-06-19T11:01:49;100809.53;;;28.38;38.05
75740;BME280;64357;51.344;6.550;2023-06-19T11:04:15;100814.25;;;27.89;38.08
75740;BME280;64357;51.344;6.550;2023-06-19T11:06:45;100816.16;;;28.57;37.71
75740;BME280;64357;51.344;6.550;2023-06-19T11:09:15;100801.19;;;29.25;36.49
75740;BME280;64357;51.344;6.550;2023-06-19T11:11:43;100816.66;;;29.90;35.07
75740;BME280;64357;51.344;6.550;2023-06-19T11:14:10;100815.50;;;29.00;36.95
75740;BME280;64357;51.344;6.550;2023-06-19T11:16:38;100814.00;;;29.10;37.22
75740;BME280;64357;51.344;6.550;2023-06-19T11:19:07;100808.00;;;28.81;35.35
75740;BME280;64357;51.344;6.550;2023-06-19T11:21:34;100816.47;;;28.36;36.69
75740;BME280;64357;51.344;6.550;2023-06-19T11:24:02;100817.31;;;28.68;36.93
75740;BME280;64357;51.344;6.550;2023-06-19T11:26:30;100807.50;;;28.29;37.73
75740;BME280;64357;51.344;6.550;2023-06-19T11:28:58;100822.53;;;29.01;36.94
75740;BME280;64357;51.344;6.550;2023-06-19T11:31:27;100822.31;;;28.92;37.16
75740;BME280;64357;51.344;6.550;2023-06-19T11:33:59;100804.94;;;29.36;35.98
75740;BME280;64357;51.344;6.550;2023-06-19T11:36:27;100811.06;;;29.35;36.05
75740;BME280;64357;51.344;6.550;2023-06-19T11:38:52;100808.88;;;29.94;34.79
75740;BME280;64357;51.344;6.550;2023-06-19T11:41:26;100808.00;;;29.53;35.87
75740;BME280;64357;51.344;6.550;2023-06-19T11:44:04;100809.81;;;28.19;37.61
75740;BME280;64357;51.344;6.550;2023-06-19T11:46:34;100795.25;;;28.30;37.68
75740;BME280;64357;51.344;6.550;2023-06-19T11:49:17;100798.06;;;29.43;36.38
75740;BME280;64357;51.344;6.550;2023-06-19T11:51:45;100800.66;;;28.67;37.56
75740;BME280;64357;51.344;6.550;2023-06-19T11:54:13;100802.31;;;28.01;38.72
75740;BME280;64357;51.344;6.550;2023-06-19T11:56:41;100790.16;;;28.34;37.92
75740;BME280;64357;51.344;6.550;2023-06-19T11:59:10;100798.44;;;28.84;37.06
75740;BME280;64357;51.344;6.550;2023-06-19T12:01:36;100796.00;;;29.28;36.49
75740;BME280;64357;51.344;6.550;2023-06-19T12:04:04;100799.78;;;29.39;36.09
75740;BME280;64357;51.344;6.550;2023-06-19T12:06:30;100798.84;;;29.37;36.54
75740;BME280;64357;51.344;6.550;2023-06-19T12:08:56;100803.75;;;28.86;37.29
75740;BME280;64357;51.344;6.550;2023-06-19T12:11:21;100788.00;;;29.61;36.28
75740;BME280;64357;51.344;6.550;2023-06-19T12:13:50;100775.72;;;29.24;37.28
75740;BME280;64357;51.344;6.550;2023-06-19T12:16:16;100791.81;;;30.19;35.16
75740;BME280;64357;51.344;6.550;2023-06-19T12:18:41;100790.59;;;29.22;37.27
75740;BME280;64357;51.344;6.550;2023-06-19T12:21:07;100784.66;;;28.58;38.66
75740;BME280;64357;51.344;6.550;2023-06-19T12:23:33;100801.59;;;28.06;39.33
75740;BME280;64357;51.344;6.550;2023-06-19T12:25:58;100791.66;;;27.95;40.12
75740;BME280;64357;51.344;6.550;2023-06-19T12:28:24;100782.88;;;27.94;39.89
75740;BME280;64357;51.344;6.550;2023-06-19T12:30:51;100791.22;;;28.09;39.61
75740;BME280;64357;51.344;6.550;2023-06-19T12:33:23;100791.22;;;27.79;39.33
75740;BME280;64357;51.344;6.550;2023-06-19T12:35:50;100798.56;;;27.91;38.91
75740;BME280;64357;51.344;6.550;2023-06-19T12:38:16;100796.72;;;27.88;38.86
75740;BME280;64357;51.344;6.550;2023-06-19T12:40:41;100800.84;;;27.50;39.91
75740;BME280;64357;51.344;6.550;2023-06-19T12:43:09;100794.47;;;28.02;38.83
75740;BME280;64357;51.344;6.550;2023-06-19T12:45:36;100797.94;;;28.64;38.02
75740;BME280;64357;51.344;6.550;2023-06-19T12:48:05;100798.03;;;28.67;37.82
75740;BME280;64357;51.344;6.550;2023-06-19T12:50:33;100804.84;;;28.94;37.84
75740;BME280;64357;51.344;6.550;2023-06-19T12:53:09;100791.50;;;28.88;37.79
75740;BME280;64357;51.344;6.550;2023-06-19T12:55:39;100800.28;;;28.88;37.56
75740;BME280;64357;51.344;6.550;2023-06-19T12:58:05;100790.44;;;28.80;37.66